createdAt,value
2022-12-27T00:00:35.892Z,16.31
2022-12-27T00:03:02.641Z,16.30
2022-12-27T00:05:29.319Z,16.29
2022-12-27T00:07:56.304Z,16.28
2022-12-27T00:10:22.984Z,16.27
2022-12-27T00:12:49.607Z,16.27
2022-12-27T00:15:16.230Z,16.27
2022-12-27T00:17:42.896Z,16.25
2022-12-27T00:20:11.726Z,16.24
2022-12-27T00:22:38.735Z,16.23
2022-12-27T00:25:05.587Z,16.23
2022-12-27T00:27:32.178Z,16.22
2022-12-27T00:29:58.885Z,16.21
2022-12-27T00:32:25.448Z,16.20
2022-12-27T00:34:52.037Z,16.19
2022-12-27T00:37:18.722Z,16.18
2022-12-27T00:39:45.303Z,16.16
2022-12-27T00:42:12.045Z,16.16
2022-12-27T00:44:38.687Z,16.15
2022-12-27T00:47:05.330Z,16.15
2022-12-27T00:49:31.961Z,16.14
2022-12-27T00:51:58.578Z,16.13
2022-12-27T00:54:25.223Z,16.12
2022-12-27T00:56:51.863Z,16.11
2022-12-27T00:59:18.531Z,16.10
2022-12-27T01:01:45.459Z,16.10
2022-12-27T01:04:15.933Z,16.10
2022-12-27T01:06:42.615Z,16.09
2022-12-27T01:09:09.438Z,16.07
2022-12-27T01:11:36.086Z,16.06
2022-12-27T01:14:04.182Z,16.05
2022-12-27T01:16:31.543Z,16.04
2022-12-27T01:18:58.743Z,16.04
2022-12-27T01:21:26.099Z,16.03
2022-12-27T01:23:52.737Z,16.01
2022-12-27T01:26:20.695Z,16.01
2022-12-27T01:28:47.938Z,16.00
2022-12-27T01:31:17.080Z,15.99
2022-12-27T01:33:43.934Z,15.99
2022-12-27T01:36:12.128Z,15.98
2022-12-27T01:38:39.108Z,15.96
2022-12-27T01:41:25.705Z,15.95
2022-12-27T01:43:52.306Z,15.94
2022-12-27T01:46:19.239Z,15.93
2022-12-27T01:48:46.289Z,15.93
2022-12-27T01:51:13.055Z,15.91
2022-12-27T01:53:42.493Z,15.91
2022-12-27T01:56:18.324Z,15.89
2022-12-27T01:58:52.165Z,15.88
2022-12-27T02:01:27.180Z,15.87
2022-12-27T02:04:02.386Z,15.85
2022-12-27T02:06:30.131Z,15.85
2022-12-27T02:09:09.534Z,15.84
2022-12-27T02:11:52.389Z,15.83
2022-12-27T02:14:26.202Z,15.82
2022-12-27T02:16:55.342Z,15.82
2022-12-27T02:19:30.210Z,15.82
2022-12-27T02:22:08.156Z,15.80
2022-12-27T02:24:34.794Z,15.80
2022-12-27T02:27:07.245Z,15.78
2022-12-27T02:29:52.326Z,15.78
2022-12-27T02:32:37.560Z,15.76
2022-12-27T02:35:23.641Z,15.74
2022-12-27T02:38:10.587Z,15.74
2022-12-27T02:41:02.001Z,15.71
2022-12-27T02:43:47.618Z,15.71
2022-12-27T02:46:35.748Z,15.71
2022-12-27T02:49:20.777Z,15.70
2022-12-27T02:52:08.965Z,15.68
2022-12-27T02:54:35.961Z,15.69
2022-12-27T02:57:09.002Z,15.67
2022-12-27T03:00:17.746Z,15.66
2022-12-27T03:03:21.560Z,15.64
2022-12-27T03:06:25.509Z,15.62
2022-12-27T03:09:10.686Z,15.63
2022-12-27T03:12:12.392Z,15.63
2022-12-27T03:15:01.505Z,15.62
2022-12-27T03:17:37.349Z,15.60
2022-12-27T03:20:33.304Z,15.57
2022-12-27T03:23:20.236Z,15.57
2022-12-27T03:25:48.784Z,15.57
2022-12-27T03:28:39.374Z,15.55
2022-12-27T03:31:28.950Z,15.56
2022-12-27T03:34:04.759Z,15.56
2022-12-27T03:36:52.088Z,15.55
2022-12-27T03:39:24.612Z,15.55
2022-12-27T03:42:12.248Z,15.53
2022-12-27T03:44:39.499Z,15.53
2022-12-27T03:47:21.152Z,15.52
2022-12-27T03:49:50.522Z,15.51
2022-12-27T03:52:25.427Z,15.50
2022-12-27T03:54:52.903Z,15.48
2022-12-27T03:57:24.248Z,15.48
2022-12-27T03:59:50.966Z,15.47
2022-12-27T04:02:17.930Z,15.47
2022-12-27T04:04:44.892Z,15.47
2022-12-27T04:07:14.571Z,15.45
2022-12-27T04:09:59.651Z,15.46
2022-12-27T04:12:45.188Z,15.46
2022-12-27T04:15:30.360Z,15.49
2022-12-27T04:18:15.314Z,15.50
2022-12-27T04:21:00.486Z,15.54
2022-12-27T04:23:45.683Z,15.57
2022-12-27T04:26:30.856Z,15.62
2022-12-27T04:29:15.965Z,15.68
2022-12-27T04:32:00.933Z,15.74
2022-12-27T04:34:42.480Z,15.80
2022-12-27T04:37:10.583Z,15.85
2022-12-27T04:39:37.254Z,15.88
2022-12-27T04:42:22.479Z,15.92
2022-12-27T04:45:14.829Z,15.96
2022-12-27T04:48:00.755Z,16.01
2022-12-27T04:50:51.417Z,16.04
2022-12-27T04:53:40.448Z,16.09
2022-12-27T04:56:07.283Z,16.11
2022-12-27T04:58:34.020Z,16.15
2022-12-27T05:01:20.654Z,16.19
2022-12-27T05:03:48.393Z,16.22
2022-12-27T05:06:15.453Z,16.25
2022-12-27T05:09:00.827Z,16.27
2022-12-27T05:11:46.009Z,16.30
2022-12-27T05:14:14.129Z,16.31
2022-12-27T05:16:41.807Z,16.33
2022-12-27T05:19:09.705Z,16.35
2022-12-27T05:21:37.207Z,16.36
2022-12-27T05:24:22.676Z,16.37
2022-12-27T05:26:49.653Z,16.37
2022-12-27T05:29:16.290Z,16.36
2022-12-27T05:31:42.962Z,16.37
2022-12-27T05:34:09.675Z,16.38
2022-12-27T05:36:36.382Z,16.37
2022-12-27T05:39:03.009Z,16.37
2022-12-27T05:41:29.666Z,16.37
2022-12-27T05:43:59.646Z,16.38
2022-12-27T05:46:30.107Z,16.38
2022-12-27T05:48:56.818Z,16.39
2022-12-27T05:51:23.469Z,16.38
2022-12-27T05:53:50.081Z,16.39
2022-12-27T05:56:17.469Z,16.40
2022-12-27T05:58:44.244Z,16.39
2022-12-27T06:01:12.030Z,16.37
2022-12-27T06:03:38.832Z,16.37
2022-12-27T06:06:07.869Z,16.39
2022-12-27T06:08:34.872Z,16.38
2022-12-27T06:11:09.408Z,16.38
2022-12-27T06:13:37.045Z,16.37
2022-12-27T06:16:04.727Z,16.36
2022-12-27T06:18:32.443Z,16.36
2022-12-27T06:21:06.589Z,16.36
2022-12-27T06:23:34.046Z,16.36
2022-12-27T06:26:04.514Z,16.34
2022-12-27T06:28:31.100Z,16.33
2022-12-27T06:30:58.825Z,16.33
2022-12-27T06:33:25.557Z,16.32
2022-12-27T06:35:52.197Z,16.31
2022-12-27T06:38:18.887Z,16.31
2022-12-27T06:40:45.477Z,16.29
2022-12-27T06:43:12.150Z,16.30
2022-12-27T06:45:39.389Z,16.28
2022-12-27T06:48:06.208Z,16.28
2022-12-27T06:50:34.533Z,16.27
2022-12-27T06:53:01.142Z,16.25
2022-12-27T06:55:27.790Z,16.24
2022-12-27T06:57:54.401Z,16.24
2022-12-27T07:00:21.199Z,16.23
2022-12-27T07:02:48.291Z,16.22
2022-12-27T07:05:15.096Z,16.22
2022-12-27T07:07:41.720Z,16.25
2022-12-27T07:10:08.585Z,16.25
2022-12-27T07:12:36.937Z,16.26
2022-12-27T07:15:05.255Z,16.29
2022-12-27T07:17:31.987Z,16.33
2022-12-27T07:19:58.622Z,16.38
2022-12-27T07:22:25.338Z,16.42
2022-12-27T07:24:51.954Z,16.47
2022-12-27T07:27:18.619Z,16.51
2022-12-27T07:29:45.912Z,16.54
2022-12-27T07:32:12.976Z,16.58
2022-12-27T07:34:39.583Z,16.61
2022-12-27T07:37:06.446Z,16.65
2022-12-27T07:39:33.052Z,16.68
2022-12-27T07:42:03.354Z,16.71
2022-12-27T07:44:34.576Z,16.75
2022-12-27T07:47:01.171Z,16.77
2022-12-27T07:49:28.529Z,16.79
2022-12-27T07:51:55.117Z,16.83
2022-12-27T07:54:21.867Z,16.85
2022-12-27T07:56:48.478Z,16.87
2022-12-27T07:59:15.115Z,16.89
2022-12-27T08:02:00.570Z,16.92
2022-12-27T08:04:27.314Z,16.94
2022-12-27T08:06:55.296Z,16.96
2022-12-27T08:09:26.048Z,16.98
2022-12-27T08:11:52.645Z,16.99
2022-12-27T08:14:19.261Z,16.99
2022-12-27T08:16:46.085Z,17.01
2022-12-27T08:19:12.769Z,17.01
2022-12-27T08:21:39.439Z,17.03
2022-12-27T08:24:06.199Z,17.03
2022-12-27T08:26:32.873Z,17.04
2022-12-27T08:28:59.530Z,17.02
2022-12-27T08:31:26.205Z,17.02
2022-12-27T08:33:58.275Z,17.01
2022-12-27T08:39:12.279Z,17.00
2022-12-27T08:41:39.387Z,16.99
2022-12-27T08:44:06.649Z,16.99
2022-12-27T08:46:33.330Z,16.99
2022-12-27T08:48:59.973Z,17.00
2022-12-27T08:51:35.860Z,16.99
2022-12-27T08:54:07.358Z,16.98
2022-12-27T08:56:33.972Z,16.98
2022-12-27T08:59:00.608Z,16.98
2022-12-27T09:01:27.512Z,16.97
2022-12-27T09:03:54.207Z,16.96
2022-12-27T09:06:22.023Z,16.96
2022-12-27T09:08:49.395Z,16.95
2022-12-27T09:11:17.801Z,16.94
2022-12-27T09:13:44.616Z,16.92
2022-12-27T09:16:15.723Z,16.93
2022-12-27T09:18:43.197Z,16.91
2022-12-27T09:21:11.589Z,16.90
2022-12-27T09:23:38.917Z,16.89
2022-12-27T09:26:16.459Z,16.88
2022-12-27T09:28:43.136Z,16.85
2022-12-27T09:31:11.158Z,16.86
2022-12-27T09:33:38.077Z,16.85
2022-12-27T09:36:15.228Z,16.84
2022-12-27T09:38:44.229Z,16.83
2022-12-27T09:42:11.756Z,16.83
2022-12-27T09:44:06.726Z,16.81
2022-12-27T09:46:55.268Z,16.80
2022-12-27T09:49:33.702Z,16.80
2022-12-27T09:52:07.363Z,16.77
2022-12-27T09:54:51.419Z,16.76
2022-12-27T09:57:22.151Z,16.76
2022-12-27T09:59:54.341Z,16.75
2022-12-27T10:02:24.966Z,16.74
2022-12-27T10:05:19.226Z,16.73
2022-12-27T10:07:47.967Z,16.71
2022-12-27T10:10:38.740Z,16.70
2022-12-27T10:13:26.949Z,16.68
2022-12-27T10:16:12.736Z,16.68
2022-12-27T10:18:48.030Z,16.67
2022-12-27T10:21:22.626Z,16.66
2022-12-27T10:24:02.958Z,16.66
2022-12-27T10:26:29.621Z,16.65
2022-12-27T10:28:59.419Z,16.65
2022-12-27T10:31:26.588Z,16.65
2022-12-27T10:33:53.484Z,16.64
2022-12-27T10:36:24.272Z,16.63
2022-12-27T10:38:51.012Z,16.62
2022-12-27T10:41:26.654Z,16.62
2022-12-27T10:43:54.197Z,16.61
2022-12-27T10:46:33.297Z,16.59
2022-12-27T10:51:47.276Z,16.57
2022-12-27T10:54:15.149Z,16.57
2022-12-27T10:56:44.343Z,16.55
2022-12-27T10:59:19.024Z,16.55
2022-12-27T11:01:47.071Z,16.53
2022-12-27T11:04:20.677Z,16.52
2022-12-27T11:07:00.274Z,16.51
2022-12-27T11:09:31.844Z,16.50
2022-12-27T11:12:16.864Z,16.48
2022-12-27T11:14:55.567Z,16.49
2022-12-27T11:17:42.579Z,16.46
2022-12-27T11:20:19.735Z,16.44
2022-12-27T11:23:06.613Z,16.43
2022-12-27T11:25:33.984Z,16.42
2022-12-27T11:28:00.630Z,16.42
2022-12-27T11:30:30.240Z,16.40
2022-12-27T11:32:58.161Z,16.38
2022-12-27T11:35:24.834Z,16.39
2022-12-27T11:37:52.241Z,16.39
2022-12-27T11:40:41.504Z,16.38
2022-12-27T11:43:10.260Z,16.36
2022-12-27T11:45:42.648Z,16.36
2022-12-27T11:48:12.064Z,16.35
2022-12-27T11:50:48.352Z,16.35
2022-12-27T11:53:21.128Z,16.33
2022-12-27T11:55:47.708Z,16.34
2022-12-27T11:58:14.404Z,16.34
2022-12-27T12:00:50.038Z,16.33
2022-12-27T12:03:34.628Z,16.34
2022-12-27T12:06:16.006Z,16.32
2022-12-27T12:08:50.863Z,16.31
2022-12-27T12:11:20.249Z,16.30
2022-12-27T12:13:55.564Z,16.30
2022-12-27T12:16:31.261Z,16.28
2022-12-27T12:18:59.855Z,16.27
2022-12-27T12:21:56.048Z,16.27
2022-12-27T12:24:43.501Z,16.27
2022-12-27T12:27:10.095Z,16.26
2022-12-27T12:29:55.274Z,16.24
2022-12-27T12:32:21.906Z,16.24
2022-12-27T12:35:04.736Z,16.24
2022-12-27T12:37:51.636Z,16.22
2022-12-27T12:40:39.921Z,16.21
2022-12-27T12:43:25.180Z,16.21
2022-12-27T12:45:57.667Z,16.20
2022-12-27T12:48:30.607Z,16.18
2022-12-27T12:51:06.274Z,16.19
2022-12-27T12:53:38.775Z,16.17
2022-12-27T12:56:23.936Z,16.18
2022-12-27T12:59:13.931Z,16.16
2022-12-27T13:01:59.636Z,16.16
2022-12-27T13:04:55.791Z,16.14
2022-12-27T13:07:40.674Z,16.13
2022-12-27T13:10:10.144Z,16.13
2022-12-27T13:12:53.075Z,16.12
2022-12-27T13:15:28.713Z,16.11
2022-12-27T13:18:01.425Z,16.10
2022-12-27T13:20:47.512Z,16.09
2022-12-27T13:23:33.056Z,16.09
2022-12-27T13:26:05.540Z,16.06
2022-12-27T13:28:43.299Z,16.06
2022-12-27T13:31:33.674Z,16.05
2022-12-27T13:34:26.794Z,16.04
2022-12-27T13:37:05.669Z,16.03
2022-12-27T13:39:44.256Z,16.03
2022-12-27T13:42:19.708Z,16.02
2022-12-27T13:45:07.591Z,16.02
2022-12-27T13:47:48.600Z,16.00
2022-12-27T13:50:43.690Z,15.99
2022-12-27T13:53:29.379Z,15.98
2022-12-27T13:56:20.615Z,15.97
2022-12-27T13:59:13.451Z,15.95
2022-12-27T14:02:01.206Z,15.95
2022-12-27T14:04:33.932Z,15.93
2022-12-27T14:07:16.001Z,15.93
2022-12-27T14:09:42.581Z,15.93
2022-12-27T14:12:24.338Z,15.92
2022-12-27T14:14:51.636Z,15.92
2022-12-27T14:17:30.379Z,15.92
2022-12-27T14:20:15.517Z,15.91
2022-12-27T14:22:42.091Z,15.90
2022-12-27T14:25:25.766Z,15.90
2022-12-27T14:28:10.175Z,15.89
2022-12-27T14:30:55.783Z,15.88
2022-12-27T14:33:22.411Z,15.87
2022-12-27T14:36:10.055Z,15.88
2022-12-27T14:38:36.686Z,15.86
2022-12-27T14:41:26.598Z,15.86
2022-12-27T14:43:59.195Z,15.84
2022-12-27T14:46:31.854Z,15.83
2022-12-27T14:49:17.207Z,15.84
2022-12-27T14:52:00.710Z,15.84
2022-12-27T14:54:31.274Z,15.83
2022-12-27T14:57:16.446Z,15.84
2022-12-27T14:59:58.087Z,15.83
2022-12-27T15:02:43.200Z,15.82
2022-12-27T15:05:28.578Z,15.80
2022-12-27T15:08:10.316Z,15.81
2022-12-27T15:10:59.393Z,15.80
2022-12-27T15:13:49.490Z,15.79
2022-12-27T15:16:23.301Z,15.79
2022-12-27T15:18:56.474Z,15.80
2022-12-27T15:21:42.117Z,15.78
2022-12-27T15:24:11.640Z,15.76
2022-12-27T15:27:01.344Z,15.76
2022-12-27T15:29:28.241Z,15.76
2022-12-27T15:31:57.735Z,15.76
2022-12-27T15:34:33.457Z,15.75
2022-12-27T15:37:00.185Z,15.73
2022-12-27T15:39:35.805Z,15.73
2022-12-27T15:42:14.607Z,15.72
2022-12-27T15:44:44.394Z,15.71
2022-12-27T15:47:36.411Z,15.71
2022-12-27T15:50:02.985Z,15.69
2022-12-27T15:52:29.585Z,15.70
2022-12-27T15:54:56.217Z,15.70
2022-12-27T15:57:44.159Z,15.68
2022-12-27T16:00:15.604Z,15.67
2022-12-27T16:02:45.262Z,15.67
2022-12-27T16:05:17.858Z,15.66
2022-12-27T16:08:13.724Z,15.67
2022-12-27T16:10:40.645Z,15.67
2022-12-27T16:13:10.486Z,15.65
2022-12-27T16:15:41.264Z,15.65
2022-12-27T16:18:27.771Z,15.65
2022-12-27T16:20:57.484Z,15.64
2022-12-27T16:23:29.796Z,15.64
2022-12-27T16:26:19.888Z,15.63
2022-12-27T16:28:52.705Z,15.64
2022-12-27T16:31:23.830Z,15.64
2022-12-27T16:33:51.204Z,15.62
2022-12-27T16:36:26.035Z,15.63
2022-12-27T16:39:11.600Z,15.62
2022-12-27T16:41:38.215Z,15.61
2022-12-27T16:44:13.910Z,15.61
2022-12-27T16:46:56.123Z,15.59
2022-12-27T16:49:25.843Z,15.60
2022-12-27T16:51:52.458Z,15.58
2022-12-27T16:54:21.851Z,15.57
2022-12-27T16:56:49.402Z,15.58
2022-12-27T16:59:35.031Z,15.58
2022-12-27T17:02:01.948Z,15.58
2022-12-27T17:04:47.333Z,15.58
2022-12-27T17:07:33.883Z,15.57
2022-12-27T17:10:20.431Z,15.57
2022-12-27T17:12:50.189Z,15.56
2022-12-27T17:15:17.013Z,15.55
2022-12-27T17:17:46.538Z,15.55
2022-12-27T17:20:16.825Z,15.55
2022-12-27T17:22:43.615Z,15.55
2022-12-27T17:25:18.449Z,15.54
2022-12-27T17:27:45.053Z,15.53
2022-12-27T17:30:20.079Z,15.53
2022-12-27T17:33:02.663Z,15.53
2022-12-27T17:35:39.760Z,15.54
2022-12-27T17:38:20.311Z,15.53
2022-12-27T17:40:47.012Z,15.51
2022-12-27T17:43:35.605Z,15.52
2022-12-27T17:46:05.239Z,15.51
2022-12-27T17:48:33.063Z,15.51
2022-12-27T17:51:02.154Z,15.51
2022-12-27T17:53:47.713Z,15.50
2022-12-27T17:56:34.862Z,15.50
2022-12-27T17:59:21.721Z,15.50
2022-12-27T18:01:50.622Z,15.50
2022-12-27T18:04:28.119Z,15.49
2022-12-27T18:07:00.581Z,15.49
2022-12-27T18:09:27.160Z,15.48
2022-12-27T18:11:53.837Z,15.48
2022-12-27T18:14:21.094Z,15.48
2022-12-27T18:16:47.944Z,15.47
2022-12-27T18:19:21.016Z,15.46
2022-12-27T18:21:58.181Z,15.46
2022-12-27T18:24:29.942Z,15.47
2022-12-27T18:27:04.199Z,15.50
2022-12-27T18:29:31.268Z,15.51
2022-12-27T18:32:00.074Z,15.52
2022-12-27T18:34:30.722Z,15.54
2022-12-27T18:37:00.944Z,15.58
2022-12-27T18:39:27.537Z,15.63
2022-12-27T18:41:54.620Z,15.69
2022-12-27T18:44:27.085Z,15.74
2022-12-27T18:46:55.500Z,15.80
2022-12-27T18:49:31.833Z,15.85
2022-12-27T18:51:58.648Z,15.90
2022-12-27T18:54:28.112Z,15.94
2022-12-27T18:56:59.237Z,15.97
2022-12-27T18:59:28.920Z,16.01
2022-12-27T19:01:59.586Z,16.03
2022-12-27T19:04:33.782Z,16.08
2022-12-27T19:07:11.478Z,16.11
2022-12-27T19:09:38.059Z,16.14
2022-12-27T19:12:18.129Z,16.16
2022-12-27T19:14:46.363Z,16.19
2022-12-27T19:17:18.738Z,16.21
2022-12-27T19:19:47.166Z,16.23
2022-12-27T19:22:32.668Z,16.24
2022-12-27T19:25:04.791Z,16.25
2022-12-27T19:27:31.740Z,16.28
2022-12-27T19:29:58.348Z,16.29
2022-12-27T19:32:33.397Z,16.29
2022-12-27T19:35:01.992Z,16.31
2022-12-27T19:37:30.611Z,16.33
2022-12-27T19:39:57.923Z,16.33
2022-12-27T19:42:29.593Z,16.33
2022-12-27T19:44:56.308Z,16.34
2022-12-27T19:47:22.966Z,16.34
2022-12-27T19:49:49.910Z,16.35
2022-12-27T19:52:18.890Z,16.35
2022-12-27T19:54:46.245Z,16.35
2022-12-27T19:57:13.153Z,16.36
2022-12-27T19:59:39.912Z,16.37
2022-12-27T20:02:06.644Z,16.37
2022-12-27T20:04:33.532Z,16.39
2022-12-27T20:07:00.810Z,16.39
2022-12-27T20:09:27.909Z,16.40
2022-12-27T20:11:54.602Z,16.40
2022-12-27T20:14:21.211Z,16.40
2022-12-27T20:16:48.110Z,16.41
2022-12-27T20:19:16.619Z,16.40
2022-12-27T20:21:43.319Z,16.40
2022-12-27T20:24:10.859Z,16.40
2022-12-27T20:26:37.697Z,16.39
2022-12-27T20:29:04.861Z,16.39
2022-12-27T20:31:31.497Z,16.39
2022-12-27T20:33:58.142Z,16.37
2022-12-27T20:36:24.909Z,16.37
2022-12-27T20:38:51.548Z,16.36
2022-12-27T20:41:19.622Z,16.36
2022-12-27T20:43:46.672Z,16.37
2022-12-27T20:46:16.723Z,16.36
2022-12-27T20:48:44.755Z,16.35
2022-12-27T20:51:12.848Z,16.36
2022-12-27T20:53:39.544Z,16.35
2022-12-27T20:56:09.104Z,16.34
2022-12-27T20:58:35.754Z,16.33
2022-12-27T21:01:06.452Z,16.32
2022-12-27T21:03:33.254Z,16.33
2022-12-27T21:06:04.942Z,16.32
2022-12-27T21:08:40.463Z,16.31
2022-12-27T21:11:12.548Z,16.30
2022-12-27T21:13:39.895Z,16.29
2022-12-27T21:16:09.767Z,16.28
2022-12-27T21:18:36.430Z,16.27
2022-12-27T21:21:07.491Z,16.28
2022-12-27T21:23:34.871Z,16.26
2022-12-27T21:26:05.454Z,16.26
2022-12-27T21:28:32.211Z,16.27
2022-12-27T21:30:59.167Z,16.27
2022-12-27T21:33:25.923Z,16.30
2022-12-27T21:35:59.474Z,16.31
2022-12-27T21:38:26.735Z,16.34
2022-12-27T21:40:57.182Z,16.38
2022-12-27T21:43:23.888Z,16.42
2022-12-27T21:45:50.530Z,16.48
2022-12-27T21:48:17.145Z,16.53
2022-12-27T21:50:43.856Z,16.59
2022-12-27T21:53:10.476Z,16.62
2022-12-27T21:55:37.160Z,16.66
2022-12-27T21:58:03.777Z,16.69
2022-12-27T22:00:38.397Z,16.74
2022-12-27T22:03:05.209Z,16.75
2022-12-27T22:05:32.037Z,16.79
2022-12-27T22:07:58.740Z,16.81
2022-12-27T22:10:25.442Z,16.85
2022-12-27T22:12:52.162Z,16.87
2022-12-27T22:15:18.749Z,16.89
2022-12-27T22:17:45.415Z,16.90
2022-12-27T22:20:12.488Z,16.91
2022-12-27T22:22:39.149Z,16.91
2022-12-27T22:25:06.133Z,16.94
2022-12-27T22:27:32.754Z,16.94
2022-12-27T22:29:59.466Z,16.96
2022-12-27T22:32:26.097Z,16.95
2022-12-27T22:34:52.731Z,16.96
2022-12-27T22:37:19.316Z,16.96
2022-12-27T22:39:45.942Z,16.97
2022-12-27T22:42:12.571Z,16.98
2022-12-27T22:44:39.141Z,16.99
2022-12-27T22:49:52.336Z,16.99
2022-12-27T22:52:18.912Z,16.99
2022-12-27T22:55:04.442Z,16.99
2022-12-27T22:57:32.148Z,16.98
2022-12-27T22:59:58.757Z,16.98
2022-12-27T23:02:25.481Z,16.99
2022-12-27T23:04:52.207Z,16.99
2022-12-27T23:07:20.277Z,17.00
2022-12-27T23:09:46.933Z,17.00
2022-12-27T23:12:13.828Z,16.99
2022-12-27T23:14:40.683Z,16.99
2022-12-27T23:17:07.373Z,16.99
2022-12-27T23:19:34.061Z,16.99
2022-12-27T23:22:00.700Z,16.99
2022-12-27T23:24:27.286Z,17.00
2022-12-27T23:26:53.929Z,16.99
2022-12-27T23:29:20.516Z,16.98
2022-12-27T23:31:55.385Z,16.98
2022-12-27T23:34:27.758Z,16.97
2022-12-27T23:36:55.149Z,16.97
2022-12-27T23:39:21.895Z,16.96
2022-12-27T23:41:48.493Z,16.95
2022-12-27T23:44:16.106Z,16.95
2022-12-27T23:46:45.300Z,16.94
2022-12-27T23:49:12.013Z,16.94
2022-12-27T23:51:38.663Z,16.92
2022-12-27T23:54:05.373Z,16.91
2022-12-27T23:56:32.696Z,16.91
2022-12-27T23:59:00.170Z,16.89
